< < Back
Terminal Aerodrome Forecast


Current Version              Previous Versions:   1  2  3  4  5  6  7  8  9  

Terminal Aerodrome Forecast

940
FTUS42 KFFC 011558 AAB
TAFATL
TAF AMD
KATL 011558Z 0116/0218 VRB03KT P6SM FEW035 SCT250
      TEMPO 0116/0118 BKN030
     FM011800 13005KT P6SM SCT040 SCT250
     FM020000 VRB03KT P6SM SCT250
     FM021500 35004KT P6SM FEW035 SCT250=

Latest METAR

995
SAUS70 KWBC 011600 RRH
MTRATL
METAR KATL 011552Z 00000KT 10SM FEW035 SCT250 28/19 A3015 RMK AO2 SLP199
TCU DSNT N-NE & S-SW-W T02780189


USA.gov is the U.S. government's official web portal to all federal, state and local government web resources and services.